Time;durP1;ratioP1;P1;durP2;ratioP2;P2;SDS_P1;SDS_P2;PMS_P1;PMS_P2;Temp;Humidity;BMP_temperature;BMP_pressure;BME280_temperature;BME280_humidity;BME280_pressure;Samples;Min_cycle;Max_cycle;Signal;HPM_P1;HPM_P2
2024/01/24 00:01:13;;;;;;;7.72;7.13;;;;;;;;;;4990665;28;20038;-85
2024/01/24 00:03:39;;;;;;;7.72;6.95;;;;;;;;;;4986039;28;20424;-86
2024/01/24 00:06:04;;;;;;;7.10;6.60;;;;;;;;;;5002097;28;20097;-86
2024/01/24 00:08:30;;;;;;;8.32;6.75;;;;;;;;;;4974796;28;20160;-85
2024/01/24 00:10:56;;;;;;;7.03;6.45;;;;;;;;;;5016428;28;20084;-84
2024/01/24 00:13:22;;;;;;;7.63;6.93;;;;;;;;;;5016470;28;20037;-83
2024/01/24 00:15:47;;;;;;;7.95;6.88;;;;;;;;;;5000324;28;20049;-84
2024/01/24 00:18:13;;;;;;;7.35;6.75;;;;;;;;;;4984431;28;20037;-84
2024/01/24 00:20:39;;;;;;;6.68;6.15;;;;;;;;;;5000147;28;20447;-84
2024/01/24 00:23:04;;;;;;;12.10;6.57;;;;;;;;;;4983518;28;20107;-84
2024/01/24 00:25:30;;;;;;;7.05;6.35;;;;;;;;;;4984899;28;20543;-84
2024/01/24 00:27:55;;;;;;;7.50;6.90;;;;;;;;;;5001331;28;20057;-84
2024/01/24 00:30:21;;;;;;;7.13;6.53;;;;;;;;;;5017067;28;20046;-83
2024/01/24 00:32:47;;;;;;;7.10;6.50;;;;;;;;;;4980541;28;20038;-84
2024/01/24 00:35:12;;;;;;;8.80;6.55;;;;;;;;;;4999696;28;20042;-84
2024/01/24 00:37:38;;;;;;;6.75;6.35;;;;;;;;;;5000279;28;20042;-85
2024/01/24 00:40:04;;;;;;;6.65;6.15;;;;;;;;;;5000497;28;20041;-84
2024/01/24 00:42:29;;;;;;;6.70;6.10;;;;;;;;;;5002301;28;20512;-86
2024/01/24 00:44:55;;;;;;;9.60;7.35;;;;;;;;;;4999656;28;20034;-86
2024/01/24 00:47:21;;;;;;;7.10;6.50;;;;;;;;;;5001167;28;20041;-84
2024/01/24 00:49:46;;;;;;;6.60;6.10;;;;;;;;;;4983093;28;20085;-87
2024/01/24 00:52:12;;;;;;;7.22;6.63;;;;;;;;;;5016026;28;20053;-85
2024/01/24 00:54:38;;;;;;;7.07;6.57;;;;;;;;;;4982623;28;20041;-85
2024/01/24 00:57:04;;;;;;;7.20;6.50;;;;;;;;;;4981791;28;20049;-85
2024/01/24 00:59:29;;;;;;;7.80;7.22;;;;;;;;;;4982006;28;20045;-85
2024/01/24 01:01:55;;;;;;;8.00;7.32;;;;;;;;;;5031215;28;20129;-85
2024/01/24 01:04:21;;;;;;;7.97;7.28;;;;;;;;;;4981981;28;20037;-85
2024/01/24 01:06:47;;;;;;;6.72;6.28;;;;;;;;;;5012662;28;20037;-85
2024/01/24 01:09:12;;;;;;;6.90;6.50;;;;;;;;;;5031883;28;20056;-85
2024/01/24 01:11:38;;;;;;;7.13;6.55;;;;;;;;;;4984674;28;20045;-86
2024/01/24 01:14:04;;;;;;;7.63;6.88;;;;;;;;;;4999072;28;20612;-85
2024/01/24 01:16:29;;;;;;;9.15;6.57;;;;;;;;;;4977779;28;20049;-85
2024/01/24 01:18:55;;;;;;;7.50;6.93;;;;;;;;;;4981216;28;20149;-85
2024/01/24 01:21:20;;;;;;;7.30;6.80;;;;;;;;;;4962177;28;20522;-85
2024/01/24 01:23:46;;;;;;;7.40;6.82;;;;;;;;;;5029242;28;20133;-85
2024/01/24 01:26:13;;;;;;;8.05;7.35;;;;;;;;;;5015059;28;20038;-85
2024/01/24 01:28:38;;;;;;;7.90;7.20;;;;;;;;;;4984200;28;20095;-85
2024/01/24 01:31:05;;;;;;;7.65;7.13;;;;;;;;;;4999312;28;20037;-85
2024/01/24 01:33:30;;;;;;;7.40;6.80;;;;;;;;;;4995501;28;20043;-85
2024/01/24 01:35:56;;;;;;;7.82;7.22;;;;;;;;;;5015545;28;20086;-85
2024/01/24 01:38:22;;;;;;;7.80;7.20;;;;;;;;;;5003846;28;20036;-85
2024/01/24 01:40:48;;;;;;;7.60;7.10;;;;;;;;;;5011313;28;20030;-85
2024/01/24 01:43:14;;;;;;;7.05;6.63;;;;;;;;;;5028137;28;20038;-85
2024/01/24 01:45:40;;;;;;;7.10;6.70;;;;;;;;;;5013183;28;20034;-85
2024/01/24 01:48:10;;;;;;;7.72;7.15;;;;;;;;;;5026235;28;20115;-85
2024/01/24 01:50:37;;;;;;;7.68;7.18;;;;;;;;;;4998801;28;20228;-85
2024/01/24 01:53:05;;;;;;;7.20;6.60;;;;;;;;;;5008954;28;20079;-85
2024/01/24 01:55:33;;;;;;;7.70;7.20;;;;;;;;;;4980791;28;20042;-85
2024/01/24 01:58:00;;;;;;;7.15;6.63;;;;;;;;;;4982693;28;20044;-85
2024/01/24 02:00:26;;;;;;;8.38;7.57;;;;;;;;;;5015373;28;20040;-85
2024/01/24 02:02:53;;;;;;;7.22;6.30;;;;;;;;;;5015248;28;20778;-85
2024/01/24 02:05:19;;;;;;;7.97;7.07;;;;;;;;;;4999090;28;20037;-85
2024/01/24 02:07:45;;;;;;;8.60;7.90;;;;;;;;;;4996878;28;20654;-85
2024/01/24 02:10:12;;;;;;;7.47;6.88;;;;;;;;;;4980717;28;20037;-85
2024/01/24 02:12:37;;;;;;;7.47;6.97;;;;;;;;;;5001781;28;20041;-85
2024/01/24 02:15:03;;;;;;;7.57;7.10;;;;;;;;;;4997747;28;20041;-84
2024/01/24 02:17:29;;;;;;;7.65;7.03;;;;;;;;;;4998178;28;20407;-85
2024/01/24 02:19:54;;;;;;;7.63;7.03;;;;;;;;;;4997433;28;20033;-85
2024/01/24 02:22:20;;;;;;;7.45;6.93;;;;;;;;;;4995600;28;20033;-84
2024/01/24 02:24:45;;;;;;;7.85;7.10;;;;;;;;;;4972646;28;20034;-85
2024/01/24 02:27:11;;;;;;;7.13;6.63;;;;;;;;;;5000190;28;20045;-85
2024/01/24 02:29:37;;;;;;;7.55;7.05;;;;;;;;;;4986186;28;20077;-85
2024/01/24 02:32:02;;;;;;;7.43;6.88;;;;;;;;;;5006763;28;20042;-85
2024/01/24 02:34:28;;;;;;;7.10;6.70;;;;;;;;;;5003620;28;20041;-85
2024/01/24 02:36:54;;;;;;;7.63;7.13;;;;;;;;;;5035932;28;20038;-84
2024/01/24 02:39:19;;;;;;;7.57;7.07;;;;;;;;;;4997464;28;20104;-84
2024/01/24 02:41:45;;;;;;;8.45;7.60;;;;;;;;;;5003684;28;20084;-86
2024/01/24 02:44:10;;;;;;;7.55;6.90;;;;;;;;;;4995259;28;20038;-85
2024/01/24 02:46:36;;;;;;;9.13;7.25;;;;;;;;;;5006312;28;20583;-85
2024/01/24 02:49:03;;;;;;;7.90;7.30;;;;;;;;;;5004624;28;20030;-85
2024/01/24 02:51:28;;;;;;;7.90;7.30;;;;;;;;;;5004923;28;21269;-85
2024/01/24 02:53:54;;;;;;;7.53;6.95;;;;;;;;;;4988067;28;20038;-85
2024/01/24 02:56:20;;;;;;;7.75;7.13;;;;;;;;;;5034483;28;20790;-85
2024/01/24 02:58:46;;;;;;;7.93;7.18;;;;;;;;;;5006057;28;20044;-85
2024/01/24 03:01:12;;;;;;;7.82;7.10;;;;;;;;;;4998960;28;20702;-85
2024/01/24 03:03:41;;;;;;;8.60;7.15;;;;;;;;;;5034536;28;20117;-85
2024/01/24 03:06:07;;;;;;;7.78;6.82;;;;;;;;;;4981614;28;20060;-85
2024/01/24 03:08:48;;;;;;;8.05;7.13;;;;;;;;;;5001560;28;20046;-86
2024/01/24 03:11:14;;;;;;;7.38;6.95;;;;;;;;;;5032351;28;20045;-84
2024/01/24 03:13:40;;;;;;;7.45;6.90;;;;;;;;;;5007181;28;20036;-85
2024/01/24 03:16:07;;;;;;;7.10;6.60;;;;;;;;;;4988264;28;20054;-86
2024/01/24 03:18:36;;;;;;;7.25;6.65;;;;;;;;;;4986086;28;20038;-85
2024/01/24 03:21:01;;;;;;;7.38;6.82;;;;;;;;;;4995031;28;20084;-85
2024/01/24 03:23:28;;;;;;;7.32;6.70;;;;;;;;;;4969984;28;20073;-85
2024/01/24 03:25:53;;;;;;;8.77;6.80;;;;;;;;;;5025434;28;20408;-85
2024/01/24 03:28:19;;;;;;;7.25;6.85;;;;;;;;;;4990864;28;20034;-85
2024/01/24 03:30:44;;;;;;;7.30;6.78;;;;;;;;;;5000436;28;20042;-85
2024/01/24 03:33:10;;;;;;;7.63;7.03;;;;;;;;;;4988141;28;20727;-85
2024/01/24 03:35:36;;;;;;;9.05;6.72;;;;;;;;;;5018587;28;20558;-85
2024/01/24 03:38:02;;;;;;;9.00;6.93;;;;;;;;;;5023411;28;20791;-85
2024/01/24 03:40:28;;;;;;;7.63;6.82;;;;;;;;;;4962551;28;20132;-85
2024/01/24 03:42:53;;;;;;;7.35;6.60;;;;;;;;;;5030922;28;20041;-84
2024/01/24 03:45:19;;;;;;;6.93;6.40;;;;;;;;;;4998315;28;20041;-84
2024/01/24 03:47:45;;;;;;;7.05;6.45;;;;;;;;;;5009642;28;20041;-85
2024/01/24 03:50:11;;;;;;;7.22;6.50;;;;;;;;;;4987804;28;20038;-85
2024/01/24 03:52:36;;;;;;;7.53;6.93;;;;;;;;;;5015402;28;20041;-84
2024/01/24 03:55:02;;;;;;;7.45;6.85;;;;;;;;;;5001181;28;20140;-85
2024/01/24 03:57:27;;;;;;;7.43;6.70;;;;;;;;;;4978838;28;20030;-84
2024/01/24 03:59:53;;;;;;;7.28;6.88;;;;;;;;;;4994323;28;20068;-84
2024/01/24 04:02:19;;;;;;;7.15;6.65;;;;;;;;;;5026775;28;20034;-84
2024/01/24 04:04:45;;;;;;;7.32;6.82;;;;;;;;;;4998821;28;20506;-83
2024/01/24 04:07:10;;;;;;;7.85;7.30;;;;;;;;;;5016020;28;20057;-84
2024/01/24 04:09:36;;;;;;;7.60;7.00;;;;;;;;;;4999285;28;20523;-83
2024/01/24 04:12:02;;;;;;;7.07;6.68;;;;;;;;;;5012498;28;20241;-85
2024/01/24 04:14:27;;;;;;;8.82;6.78;;;;;;;;;;5014367;28;20463;-85
2024/01/24 04:16:53;;;;;;;7.85;7.10;;;;;;;;;;5001097;28;20144;-85
2024/01/24 04:19:18;;;;;;;7.78;7.18;;;;;;;;;;4997973;28;20040;-84
2024/01/24 04:21:44;;;;;;;7.50;6.80;;;;;;;;;;4993221;28;20025;-84
2024/01/24 04:24:09;;;;;;;7.60;7.10;;;;;;;;;;5007415;28;20038;-84
2024/01/24 04:26:35;;;;;;;8.27;7.50;;;;;;;;;;5009847;28;20054;-84
2024/01/24 04:29:02;;;;;;;8.55;7.85;;;;;;;;;;4998810;28;20040;-85
2024/01/24 04:31:27;;;;;;;8.63;7.82;;;;;;;;;;4986401;28;20041;-85
2024/01/24 04:33:53;;;;;;;7.80;7.40;;;;;;;;;;4993013;28;20570;-85
2024/01/24 04:36:18;;;;;;;7.55;6.95;;;;;;;;;;5013094;28;20041;-85
2024/01/24 04:38:44;;;;;;;8.32;7.70;;;;;;;;;;5009610;28;20042;-85
2024/01/24 04:41:10;;;;;;;7.90;7.32;;;;;;;;;;4979778;28;20045;-85
2024/01/24 04:43:35;;;;;;;7.45;6.85;;;;;;;;;;4996019;28;20041;-84
2024/01/24 04:46:01;;;;;;;7.53;6.93;;;;;;;;;;5010896;28;20038;-84
2024/01/24 04:48:27;;;;;;;8.80;6.97;;;;;;;;;;5007375;28;20037;-84
2024/01/24 04:50:52;;;;;;;7.45;6.78;;;;;;;;;;5000168;28;20037;-84
2024/01/24 04:53:18;;;;;;;7.20;6.70;;;;;;;;;;4980031;28;20049;-84
2024/01/24 04:55:43;;;;;;;8.27;7.18;;;;;;;;;;5020599;28;20026;-84
2024/01/24 04:58:09;;;;;;;12.70;7.05;;;;;;;;;;4984657;28;20100;-84
2024/01/24 05:00:35;;;;;;;7.75;7.18;;;;;;;;;;4996516;28;20049;-84
2024/01/24 05:03:00;;;;;;;7.60;7.10;;;;;;;;;;5008208;28;20088;-85
2024/01/24 05:05:27;;;;;;;7.65;6.95;;;;;;;;;;4993636;28;20142;-84
2024/01/24 05:07:52;;;;;;;7.80;7.00;;;;;;;;;;4982211;28;20500;-84
2024/01/24 05:10:18;;;;;;;9.05;7.90;;;;;;;;;;4984907;28;20042;-84
2024/01/24 05:12:44;;;;;;;7.82;7.35;;;;;;;;;;5007210;28;20045;-84
2024/01/24 05:15:11;;;;;;;9.02;8.10;;;;;;;;;;4982814;28;20042;-84
2024/01/24 05:17:39;;;;;;;7.22;6.82;;;;;;;;;;4990190;28;20044;-84
2024/01/24 05:20:06;;;;;;;8.25;7.55;;;;;;;;;;4989877;28;20025;-84
2024/01/24 05:22:32;;;;;;;9.00;8.13;;;;;;;;;;5000541;28;20179;-84
2024/01/24 05:24:58;;;;;;;8.25;7.47;;;;;;;;;;5019927;28;20042;-84
2024/01/24 05:27:24;;;;;;;7.65;7.03;;;;;;;;;;4975676;28;20049;-85
2024/01/24 05:29:49;;;;;;;12.13;7.63;;;;;;;;;;4973629;28;20041;-85
2024/01/24 05:32:15;;;;;;;8.43;7.93;;;;;;;;;;4997405;28;20054;-84
2024/01/24 05:34:41;;;;;;;8.18;7.55;;;;;;;;;;5015512;28;20032;-84
2024/01/24 05:37:07;;;;;;;8.00;7.40;;;;;;;;;;5001237;28;20075;-84
2024/01/24 05:39:33;;;;;;;9.25;7.63;;;;;;;;;;5004390;28;20045;-84
2024/01/24 05:41:58;;;;;;;8.52;7.72;;;;;;;;;;5042427;28;20041;-84
2024/01/24 05:44:24;;;;;;;8.05;7.55;;;;;;;;;;5009221;28;20030;-85
2024/01/24 05:46:50;;;;;;;7.82;7.32;;;;;;;;;;4996526;28;20038;-83
2024/01/24 05:49:16;;;;;;;7.85;7.20;;;;;;;;;;4989771;28;20067;-84
2024/01/24 05:51:42;;;;;;;7.72;7.22;;;;;;;;;;4991728;28;20088;-84
2024/01/24 05:54:08;;;;;;;7.93;7.32;;;;;;;;;;4977761;28;20264;-84
2024/01/24 05:56:35;;;;;;;7.88;7.28;;;;;;;;;;4997510;28;20052;-84
2024/01/24 05:59:00;;;;;;;8.20;7.57;;;;;;;;;;5014577;28;20128;-84
2024/01/24 06:01:26;;;;;;;8.35;7.72;;;;;;;;;;4990122;28;20196;-84
2024/01/24 06:03:52;;;;;;;7.68;7.07;;;;;;;;;;5030745;28;20176;-85
2024/01/24 06:06:18;;;;;;;8.07;7.47;;;;;;;;;;4980270;28;20042;-84
2024/01/24 06:08:44;;;;;;;7.80;7.35;;;;;;;;;;4980778;28;20105;-84
2024/01/24 06:11:11;;;;;;;8.10;7.40;;;;;;;;;;4999564;28;20601;-84
2024/01/24 06:13:36;;;;;;;8.88;8.07;;;;;;;;;;4979294;28;20972;-84
2024/01/24 06:16:02;;;;;;;8.85;8.15;;;;;;;;;;4999368;28;20543;-84
2024/01/24 06:18:28;;;;;;;8.00;7.40;;;;;;;;;;5029761;28;20037;-84
2024/01/24 06:20:54;;;;;;;8.30;7.70;;;;;;;;;;5014286;28;20095;-84
2024/01/24 06:23:19;;;;;;;8.20;7.50;;;;;;;;;;4997374;28;20046;-84
2024/01/24 06:25:45;;;;;;;8.70;8.10;;;;;;;;;;4998321;28;20042;-84
2024/01/24 06:28:10;;;;;;;7.78;7.15;;;;;;;;;;5016465;28;20077;-84
2024/01/24 06:30:36;;;;;;;8.50;7.90;;;;;;;;;;5003973;28;20042;-84
2024/01/24 06:33:01;;;;;;;8.55;7.85;;;;;;;;;;4993619;28;20041;-85
2024/01/24 06:35:27;;;;;;;8.90;8.05;;;;;;;;;;4996188;28;20120;-84
2024/01/24 06:37:54;;;;;;;9.25;8.65;;;;;;;;;;4998721;28;20041;-84
2024/01/24 06:40:20;;;;;;;8.63;8.13;;;;;;;;;;4992985;28;20070;-83
2024/01/24 06:42:46;;;;;;;9.85;8.80;;;;;;;;;;4999211;28;20155;-83
2024/01/24 06:45:12;;;;;;;9.60;8.73;;;;;;;;;;4999416;28;20034;-83
2024/01/24 06:47:37;;;;;;;9.93;9.02;;;;;;;;;;5001282;28;20038;-83
2024/01/24 06:50:05;;;;;;;8.93;8.38;;;;;;;;;;4983266;28;20084;-84
2024/01/24 06:52:31;;;;;;;8.15;7.55;;;;;;;;;;4982182;28;20042;-84
2024/01/24 06:54:57;;;;;;;8.32;7.70;;;;;;;;;;4971293;28;20041;-83
2024/01/24 06:57:23;;;;;;;8.30;7.70;;;;;;;;;;4994582;28;20045;-84
2024/01/24 06:59:48;;;;;;;8.68;8.18;;;;;;;;;;5000440;28;20665;-83
2024/01/24 07:02:14;;;;;;;8.43;7.93;;;;;;;;;;4998017;28;20100;-83
2024/01/24 07:04:40;;;;;;;8.40;7.72;;;;;;;;;;4997367;28;20034;-84
2024/01/24 07:07:05;;;;;;;8.32;7.82;;;;;;;;;;4999426;28;20053;-84
2024/01/24 07:09:31;;;;;;;8.18;7.68;;;;;;;;;;4998307;28;20038;-84
2024/01/24 07:11:56;;;;;;;7.93;7.32;;;;;;;;;;5001189;28;20034;-84
2024/01/24 07:14:22;;;;;;;8.38;7.78;;;;;;;;;;5023714;28;20046;-84
2024/01/24 07:16:48;;;;;;;7.90;7.40;;;;;;;;;;5003769;28;20041;-84
2024/01/24 07:19:14;;;;;;;7.95;7.30;;;;;;;;;;5001967;28;20064;-84
2024/01/24 07:21:40;;;;;;;7.88;7.32;;;;;;;;;;5002568;28;20629;-84
2024/01/24 07:24:05;;;;;;;7.80;7.20;;;;;;;;;;5009266;28;20120;-84
2024/01/24 07:26:31;;;;;;;8.75;8.23;;;;;;;;;;4992880;28;20104;-84
2024/01/24 07:28:56;;;;;;;8.70;8.20;;;;;;;;;;4991456;28;20071;-84
2024/01/24 07:31:22;;;;;;;8.88;8.27;;;;;;;;;;5005517;28;20118;-83
2024/01/24 07:33:48;;;;;;;8.40;7.78;;;;;;;;;;5001747;28;20064;-83
2024/01/24 07:36:13;;;;;;;8.63;7.82;;;;;;;;;;5039226;28;20050;-82
2024/01/24 07:38:39;;;;;;;8.50;8.00;;;;;;;;;;5007027;28;20045;-83
2024/01/24 07:41:07;;;;;;;7.93;7.50;;;;;;;;;;5004683;28;20088;-84
2024/01/24 07:43:33;;;;;;;8.57;8.07;;;;;;;;;;5016343;28;20049;-83
2024/01/24 07:45:59;;;;;;;8.18;7.47;;;;;;;;;;5024252;28;20034;-83
2024/01/24 07:48:24;;;;;;;8.57;8.02;;;;;;;;;;5001205;28;20046;-83
2024/01/24 07:50:50;;;;;;;8.27;7.78;;;;;;;;;;5000801;28;20041;-83
2024/01/24 07:53:15;;;;;;;8.35;7.85;;;;;;;;;;5000834;28;20684;-83
2024/01/24 07:55:42;;;;;;;8.30;7.80;;;;;;;;;;4990558;28;20129;-83
2024/01/24 07:58:07;;;;;;;8.55;8.05;;;;;;;;;;5008756;28;20091;-84
2024/01/24 08:00:33;;;;;;;8.60;7.93;;;;;;;;;;4999141;28;20763;-83
2024/01/24 08:02:58;;;;;;;8.60;8.00;;;;;;;;;;5000374;28;20070;-83
2024/01/24 08:05:24;;;;;;;9.25;8.38;;;;;;;;;;5000162;28;20045;-83
2024/01/24 08:07:50;;;;;;;8.82;8.32;;;;;;;;;;5005658;28;20068;-83
2024/01/24 08:10:16;;;;;;;9.05;8.45;;;;;;;;;;5032674;28;20046;-83
2024/01/24 08:12:42;;;;;;;8.48;7.97;;;;;;;;;;4986348;28;20048;-83
2024/01/24 08:15:08;;;;;;;8.60;8.10;;;;;;;;;;4992197;28;20042;-83
2024/01/24 08:17:34;;;;;;;8.75;8.25;;;;;;;;;;5004590;28;20735;-83
2024/01/24 08:20:02;;;;;;;8.50;8.00;;;;;;;;;;5006726;28;20048;-83
2024/01/24 08:22:28;;;;;;;8.73;8.13;;;;;;;;;;4991700;28;20123;-84
2024/01/24 08:24:54;;;;;;;8.38;7.63;;;;;;;;;;4990738;28;20073;-83
2024/01/24 08:27:20;;;;;;;8.20;7.70;;;;;;;;;;5000197;28;20890;-83
2024/01/24 08:29:45;;;;;;;7.93;7.53;;;;;;;;;;5015331;28;20107;-83
2024/01/24 08:32:11;;;;;;;8.52;7.93;;;;;;;;;;4987116;28;20038;-84
2024/01/24 08:34:37;;;;;;;8.35;7.85;;;;;;;;;;5000147;28;20041;-83
2024/01/24 08:37:03;;;;;;;8.32;7.82;;;;;;;;;;4994799;28;20895;-84
2024/01/24 08:39:29;;;;;;;8.35;7.85;;;;;;;;;;5000571;28;20081;-83
2024/01/24 08:41:54;;;;;;;8.35;7.85;;;;;;;;;;5042092;28;20069;-84
2024/01/24 08:44:20;;;;;;;8.20;7.60;;;;;;;;;;5000634;28;20044;-83
2024/01/24 08:46:45;;;;;;;7.93;7.43;;;;;;;;;;5038599;28;20677;-84
2024/01/24 08:49:12;;;;;;;8.00;7.40;;;;;;;;;;5005427;28;20042;-83
2024/01/24 08:51:38;;;;;;;8.25;7.80;;;;;;;;;;4997701;28;20038;-84
2024/01/24 08:54:04;;;;;;;8.20;7.50;;;;;;;;;;5006328;28;20092;-83
2024/01/24 08:56:30;;;;;;;8.57;8.07;;;;;;;;;;5024077;28;20571;-84
2024/01/24 08:58:55;;;;;;;8.50;8.00;;;;;;;;;;5004281;28;20511;-84
2024/01/24 09:01:21;;;;;;;9.02;8.52;;;;;;;;;;4998778;28;20053;-86
2024/01/24 09:03:50;;;;;;;8.35;7.85;;;;;;;;;;5022967;28;20037;-84
2024/01/24 09:06:16;;;;;;;8.52;8.02;;;;;;;;;;5017012;28;20033;-84
2024/01/24 09:08:44;;;;;;;8.00;7.60;;;;;;;;;;5003499;28;20048;-84
2024/01/24 09:11:10;;;;;;;8.57;8.07;;;;;;;;;;4991854;28;20045;-83
2024/01/24 09:13:35;;;;;;;8.52;8.02;;;;;;;;;;5030774;28;20050;-83
2024/01/24 09:16:01;;;;;;;8.30;7.70;;;;;;;;;;5027104;28;20038;-83
2024/01/24 09:18:27;;;;;;;8.50;8.00;;;;;;;;;;4992320;28;20062;-83
2024/01/24 09:20:53;;;;;;;8.75;8.15;;;;;;;;;;5014533;28;20044;-84
2024/01/24 09:23:18;;;;;;;9.02;8.50;;;;;;;;;;5030570;28;20046;-82
2024/01/24 09:25:44;;;;;;;8.30;7.90;;;;;;;;;;5005592;28;20038;-83
2024/01/24 09:28:10;;;;;;;8.30;7.90;;;;;;;;;;5003142;28;20056;-83
2024/01/24 09:30:36;;;;;;;8.48;7.97;;;;;;;;;;4988986;28;20040;-83
2024/01/24 09:33:03;;;;;;;8.63;8.13;;;;;;;;;;4998576;28;20033;-83
2024/01/24 09:35:29;;;;;;;8.13;7.72;;;;;;;;;;4996992;28;20048;-83
2024/01/24 09:37:55;;;;;;;8.38;7.88;;;;;;;;;;5014659;28;20068;-83
2024/01/24 09:40:21;;;;;;;8.30;7.90;;;;;;;;;;4999800;28;20065;-85
2024/01/24 09:42:47;;;;;;;8.77;8.27;;;;;;;;;;5003859;28;20046;-84
2024/01/24 09:45:17;;;;;;;8.73;8.20;;;;;;;;;;4997972;28;20562;-84
2024/01/24 09:47:45;;;;;;;8.25;7.85;;;;;;;;;;4998747;28;20549;-83
2024/01/24 09:50:11;;;;;;;8.82;8.32;;;;;;;;;;4997988;28;20045;-84
2024/01/24 09:52:38;;;;;;;9.10;8.60;;;;;;;;;;4995218;28;20144;-83
2024/01/24 09:55:06;;;;;;;9.00;8.50;;;;;;;;;;4999384;28;20037;-83
2024/01/24 09:57:33;;;;;;;8.48;8.07;;;;;;;;;;5013229;28;20075;-83
2024/01/24 09:59:59;;;;;;;8.85;8.35;;;;;;;;;;5018735;28;20052;-83
2024/01/24 10:02:28;;;;;;;9.23;8.73;;;;;;;;;;4999185;28;20045;-83
2024/01/24 10:04:53;;;;;;;8.40;7.97;;;;;;;;;;5028025;28;20037;-83
2024/01/24 10:07:19;;;;;;;8.73;8.23;;;;;;;;;;5002255;28;20520;-84
2024/01/24 10:10:04;;;;;;;10.02;9.32;;;;;;;;;;5028883;28;20654;-83
2024/01/24 10:12:30;;;;;;;9.18;8.63;;;;;;;;;;4984086;28;20075;-84
2024/01/24 10:14:56;;;;;;;9.25;8.75;;;;;;;;;;4981702;28;20030;-83
2024/01/24 10:17:21;;;;;;;9.40;8.90;;;;;;;;;;4999805;28;20044;-84
2024/01/24 10:19:47;;;;;;;9.13;8.63;;;;;;;;;;4977706;28;20034;-84
2024/01/24 10:22:12;;;;;;;9.07;8.57;;;;;;;;;;4982485;28;20045;-83
2024/01/24 10:24:38;;;;;;;8.60;8.15;;;;;;;;;;5003545;28;20052;-84
2024/01/24 10:27:04;;;;;;;9.73;9.02;;;;;;;;;;5013047;28;20038;-83
2024/01/24 10:29:30;;;;;;;9.20;8.70;;;;;;;;;;5012267;28;20742;-83
2024/01/24 10:32:02;;;;;;;8.90;8.40;;;;;;;;;;4998527;28;20041;-84
2024/01/24 10:34:28;;;;;;;8.95;8.45;;;;;;;;;;4995041;28;20052;-83
2024/01/24 10:36:54;;;;;;;9.85;9.18;;;;;;;;;;5001919;28;20096;-83
2024/01/24 10:39:22;;;;;;;9.00;8.50;;;;;;;;;;4997298;28;20155;-83
2024/01/24 10:41:53;;;;;;;8.90;8.40;;;;;;;;;;5021135;28;20187;-83
2024/01/24 10:44:24;;;;;;;8.85;8.35;;;;;;;;;;5006973;28;20053;-84
2024/01/24 10:46:50;;;;;;;9.27;8.77;;;;;;;;;;5000608;28;20072;-81
2024/01/24 10:49:17;;;;;;;8.77;8.27;;;;;;;;;;4985436;28;20594;-83
2024/01/24 10:51:46;;;;;;;9.35;8.85;;;;;;;;;;5002986;28;20041;-83
2024/01/24 10:54:15;;;;;;;9.02;8.52;;;;;;;;;;5016281;28;20048;-83
2024/01/24 10:56:46;;;;;;;9.50;9.00;;;;;;;;;;5008853;28;20046;-83
2024/01/24 10:59:13;;;;;;;9.20;8.70;;;;;;;;;;4989215;28;20042;-83
2024/01/24 11:01:39;;;;;;;8.77;8.27;;;;;;;;;;5026158;28;20037;-83
2024/01/24 11:04:06;;;;;;;9.18;8.68;;;;;;;;;;5012717;28;20034;-83
2024/01/24 11:06:33;;;;;;;9.70;9.20;;;;;;;;;;5016519;28;20065;-83
2024/01/24 11:09:12;;;;;;;9.57;9.07;;;;;;;;;;5032580;28;20049;-84
2024/01/24 11:11:39;;;;;;;9.15;8.65;;;;;;;;;;5017349;28;20680;-84
2024/01/24 11:14:08;;;;;;;9.80;9.15;;;;;;;;;;5013992;28;20546;-83
2024/01/24 11:16:37;;;;;;;10.10;9.40;;;;;;;;;;5008268;28;20041;-83
2024/01/24 11:19:24;;;;;;;9.70;8.87;;;;;;;;;;4996986;28;20034;-83
2024/01/24 11:21:51;;;;;;;9.85;9.25;;;;;;;;;;4999801;28;20309;-83
2024/01/24 11:24:40;;;;;;;10.55;9.95;;;;;;;;;;4991654;28;20041;-84
2024/01/24 11:27:24;;;;;;;10.63;10.02;;;;;;;;;;5019910;28;20038;-84
2024/01/24 11:29:51;;;;;;;10.90;10.27;;;;;;;;;;5004500;28;20053;-84
2024/01/24 11:32:44;;;;;;;10.40;9.80;;;;;;;;;;5003595;28;20120;-84
2024/01/24 11:35:42;;;;;;;10.65;10.00;;;;;;;;;;5028396;28;20046;-84
2024/01/24 11:38:17;;;;;;;10.73;10.05;;;;;;;;;;5040052;28;20551;-83
2024/01/24 11:40:43;;;;;;;10.93;10.00;;;;;;;;;;4999986;28;20037;-84
2024/01/24 11:43:30;;;;;;;10.85;10.25;;;;;;;;;;5004259;28;20114;-84
2024/01/24 11:46:01;;;;;;;11.30;10.60;;;;;;;;;;5012541;28;20056;-84
2024/01/24 11:48:28;;;;;;;10.95;10.13;;;;;;;;;;5017414;28;20049;-84
2024/01/24 11:51:07;;;;;;;10.00;9.40;;;;;;;;;;5008732;28;20041;-84
2024/01/24 11:53:33;;;;;;;9.95;9.35;;;;;;;;;;5008451;28;20053;-84
2024/01/24 11:56:03;;;;;;;9.60;9.10;;;;;;;;;;5017277;28;20038;-84
2024/01/24 11:58:29;;;;;;;10.80;10.00;;;;;;;;;;5031074;28;20041;-84
2024/01/24 12:00:56;;;;;;;10.55;9.95;;;;;;;;;;5004564;28;20049;-84
2024/01/24 12:03:22;;;;;;;10.38;9.65;;;;;;;;;;5001629;28;20444;-84
2024/01/24 12:05:49;;;;;;;10.90;10.10;;;;;;;;;;5002112;28;20042;-84
2024/01/24 12:08:15;;;;;;;10.60;9.90;;;;;;;;;;5004594;28;20038;-84
2024/01/24 12:10:40;;;;;;;10.10;9.50;;;;;;;;;;5013683;28;20064;-84
2024/01/24 12:13:07;;;;;;;18.70;15.45;;;;;;;;;;5015988;28;20127;-84
2024/01/24 12:15:34;;;;;;;39.92;25.55;;;;;;;;;;5003546;28;20034;-84
2024/01/24 12:18:09;;;;;;;10.85;10.15;;;;;;;;;;5016395;28;20708;-84
2024/01/24 12:20:35;;;;;;;11.07;10.32;;;;;;;;;;5009095;28;20706;-85
2024/01/24 12:23:08;;;;;;;12.50;11.68;;;;;;;;;;5013874;28;20029;-84
2024/01/24 12:25:33;;;;;;;10.82;10.13;;;;;;;;;;5001125;28;20096;-83
2024/01/24 12:28:00;;;;;;;10.35;9.65;;;;;;;;;;5006653;28;20040;-84
2024/01/24 12:30:26;;;;;;;11.00;10.32;;;;;;;;;;5002766;28;20052;-83
2024/01/24 12:32:56;;;;;;;11.43;10.73;;;;;;;;;;4997982;28;20065;-84
2024/01/24 12:35:22;;;;;;;;;;;;;;;;;;5004073;28;20501;-85
2024/01/24 12:37:48;;;;;;;11.65;10.95;;;;;;;;;;5036042;28;19941;-85
2024/01/24 12:40:13;;;;;;;11.50;10.80;;;;;;;;;;5016711;28;20117;-85
2024/01/24 12:42:39;;;;;;;12.70;11.80;;;;;;;;;;5014672;28;20042;-85
2024/01/24 12:45:11;;;;;;;14.05;13.05;;;;;;;;;;4984478;28;20042;-85
2024/01/24 12:47:37;;;;;;;12.88;12.18;;;;;;;;;;5016209;28;20726;-85
2024/01/24 12:50:03;;;;;;;13.23;12.30;;;;;;;;;;5000239;28;20145;-85
2024/01/24 12:52:29;;;;;;;13.43;12.35;;;;;;;;;;5034456;28;20037;-84
2024/01/24 12:54:55;;;;;;;11.18;10.55;;;;;;;;;;4983812;28;20044;-85
2024/01/24 12:57:24;;;;;;;11.15;10.30;;;;;;;;;;5030654;28;20038;-85
2024/01/24 12:59:49;;;;;;;10.07;9.52;;;;;;;;;;5000294;28;20116;-85
2024/01/24 13:02:17;;;;;;;9.52;8.93;;;;;;;;;;5001530;28;20568;-84
2024/01/24 13:04:44;;;;;;;9.73;9.07;;;;;;;;;;5000903;28;20042;-84
2024/01/24 13:07:10;;;;;;;9.35;8.75;;;;;;;;;;5014818;28;20110;-86
2024/01/24 13:09:35;;;;;;;9.07;8.57;;;;;;;;;;5003120;28;20045;-84
2024/01/24 13:12:01;;;;;;;9.40;8.70;;;;;;;;;;5011878;28;20064;-83
2024/01/24 13:14:27;;;;;;;9.65;9.15;;;;;;;;;;4986689;28;20042;-83
2024/01/24 13:16:52;;;;;;;8.90;8.40;;;;;;;;;;5043501;28;20046;-83
2024/01/24 13:19:18;;;;;;;10.18;9.27;;;;;;;;;;5000176;28;20034;-84
2024/01/24 13:21:44;;;;;;;9.70;8.80;;;;;;;;;;5026596;28;20046;-83
2024/01/24 13:24:10;;;;;;;9.70;8.90;;;;;;;;;;5024227;28;20044;-84
2024/01/24 13:26:36;;;;;;;8.60;8.10;;;;;;;;;;4999453;28;20608;-83
2024/01/24 13:29:01;;;;;;;8.60;7.95;;;;;;;;;;4983304;28;20048;-85
2024/01/24 13:31:27;;;;;;;9.13;8.43;;;;;;;;;;4967279;28;20081;-85
2024/01/24 13:33:54;;;;;;;9.38;8.57;;;;;;;;;;5000753;28;20181;-84
2024/01/24 13:36:21;;;;;;;8.93;8.13;;;;;;;;;;4968217;28;20038;-83
2024/01/24 13:38:46;;;;;;;8.75;7.88;;;;;;;;;;4984874;28;20124;-83
2024/01/24 13:41:13;;;;;;;8.90;8.30;;;;;;;;;;4982205;28;20054;-84
2024/01/24 13:43:39;;;;;;;9.57;8.77;;;;;;;;;;4993298;28;20034;-84
2024/01/24 13:46:05;;;;;;;8.57;7.90;;;;;;;;;;4996154;28;20034;-84
2024/01/24 13:48:31;;;;;;;9.23;8.60;;;;;;;;;;4996316;28;20562;-83
2024/01/24 13:50:57;;;;;;;9.68;8.88;;;;;;;;;;4998403;28;20034;-84
2024/01/24 13:53:23;;;;;;;8.10;7.50;;;;;;;;;;4987409;28;20523;-83
2024/01/24 13:55:49;;;;;;;8.90;8.30;;;;;;;;;;5005197;28;20045;-84
2024/01/24 13:58:14;;;;;;;8.80;8.20;;;;;;;;;;5000750;28;20045;-83
2024/01/24 14:00:41;;;;;;;9.35;8.52;;;;;;;;;;4994123;28;20121;-83
2024/01/24 14:03:07;;;;;;;8.70;8.00;;;;;;;;;;5000740;28;20053;-83
2024/01/24 14:05:33;;;;;;;9.32;8.60;;;;;;;;;;5027262;28;20390;-83
2024/01/24 14:07:58;;;;;;;9.93;9.02;;;;;;;;;;4998876;28;20041;-82
2024/01/24 14:10:24;;;;;;;8.98;8.35;;;;;;;;;;5008271;28;20040;-83
2024/01/24 14:12:49;;;;;;;9.90;8.85;;;;;;;;;;5013483;28;20125;-83
2024/01/24 14:15:17;;;;;;;9.43;8.63;;;;;;;;;;4997236;28;20040;-83
2024/01/24 14:17:43;;;;;;;9.00;8.20;;;;;;;;;;4997156;28;20430;-82
2024/01/24 14:20:10;;;;;;;9.18;8.40;;;;;;;;;;5012165;28;20038;-83
2024/01/24 14:22:36;;;;;;;9.20;8.60;;;;;;;;;;4995986;28;20487;-83
2024/01/24 14:25:03;;;;;;;9.30;8.65;;;;;;;;;;5002169;28;20076;-83
2024/01/24 14:27:28;;;;;;;9.40;8.70;;;;;;;;;;4998545;28;20040;-82
2024/01/24 14:29:54;;;;;;;9.60;8.65;;;;;;;;;;4992020;28;20046;-82
2024/01/24 14:32:20;;;;;;;10.20;9.25;;;;;;;;;;5000586;28;20636;-82
2024/01/24 14:34:46;;;;;;;9.73;8.82;;;;;;;;;;4999169;28;20044;-82
2024/01/24 14:37:11;;;;;;;10.18;9.20;;;;;;;;;;5026117;28;20069;-82